createdAt,value
2019-03-15T00:07:16.603Z,12.00
2019-03-15T00:17:17.903Z,4.77
2019-03-15T00:27:19.186Z,3.27
2019-03-15T00:37:20.447Z,3.80
2019-03-15T00:47:21.748Z,3.27
2019-03-15T00:57:23.782Z,4.10
2019-03-15T01:07:25.072Z,3.23
2019-03-15T01:17:26.628Z,3.57
2019-03-15T01:27:27.717Z,4.33
2019-03-15T01:37:29.018Z,3.47
2019-03-15T01:47:30.326Z,5.83
2019-03-15T01:57:31.649Z,4.80
2019-03-15T02:07:32.950Z,3.40
2019-03-15T02:17:34.218Z,2.80
2019-03-15T02:27:35.507Z,4.50
2019-03-15T02:37:36.802Z,4.90
2019-03-15T02:47:38.088Z,2.93
2019-03-15T02:57:39.400Z,3.27
2019-03-15T03:07:40.692Z,3.73
2019-03-15T03:17:41.987Z,4.37
2019-03-15T03:27:43.286Z,2.80
2019-03-15T03:37:45.174Z,5.00
2019-03-15T03:47:45.905Z,6.67
2019-03-15T03:57:47.178Z,4.63
2019-03-15T04:07:48.447Z,5.73
2019-03-15T04:17:49.757Z,5.27
2019-03-15T04:27:51.136Z,5.03
2019-03-15T04:37:52.412Z,3.23
2019-03-15T04:47:53.719Z,5.63
2019-03-15T04:57:55.069Z,8.10
2019-03-15T05:07:56.401Z,3.73
2019-03-15T05:17:57.681Z,3.93
2019-03-15T05:27:58.992Z,7.83
2019-03-15T05:38:00.286Z,9.73
2019-03-15T05:48:01.573Z,16.73
2019-03-15T05:58:02.920Z,14.23
2019-03-15T06:08:04.190Z,7.33
2019-03-15T06:18:06.749Z,6.17
2019-03-15T06:28:06.773Z,11.90
2019-03-15T06:38:08.024Z,9.73
2019-03-15T06:48:09.315Z,4.97
2019-03-15T06:58:10.620Z,5.53
2019-03-15T07:08:12.912Z,3.87
2019-03-15T07:18:13.239Z,4.23
2019-03-15T07:28:14.515Z,4.47
2019-03-15T07:38:16.583Z,7.80
2019-03-15T07:48:22.840Z,4.13
2019-03-15T07:58:19.171Z,8.67
2019-03-15T08:08:20.450Z,7.20
2019-03-15T08:18:21.704Z,4.87
2019-03-15T08:28:22.967Z,2.73
2019-03-15T08:38:24.248Z,1.97
2019-03-15T08:48:25.545Z,1.30
2019-03-15T08:58:26.863Z,1.60
2019-03-15T09:08:28.156Z,1.43
2019-03-15T09:18:29.460Z,2.10
2019-03-15T09:28:30.750Z,1.87
2019-03-15T09:38:32.013Z,2.47
2019-03-15T09:48:33.271Z,2.08
2019-03-15T09:58:34.564Z,1.48
2019-03-15T10:08:46.169Z,1.67
2019-03-15T10:29:15.418Z,1.12
2019-03-15T10:49:34.700Z,1.37
2019-03-15T10:59:36.123Z,3.63
2019-03-15T11:09:37.594Z,1.83
2019-03-15T11:19:38.939Z,1.23
2019-03-15T11:29:40.629Z,1.93
2019-03-15T11:39:42.662Z,1.83
2019-03-15T11:49:44.699Z,1.13
